createdAt,value
2023-01-26T00:04:30.457Z,4.95
2023-01-26T00:09:36.307Z,5.43
2023-01-26T00:14:52.811Z,4.95
2023-01-26T00:19:59.235Z,6.20
2023-01-26T00:25:05.588Z,6.10
2023-01-26T00:30:12.291Z,16.15
2023-01-26T00:35:17.176Z,7.07
2023-01-26T00:40:23.493Z,6.10
2023-01-26T00:45:29.675Z,5.82
2023-01-26T00:50:34.527Z,5.50
2023-01-26T00:55:40.513Z,6.50
2023-01-26T01:00:45.141Z,6.43
2023-01-26T01:05:49.759Z,6.25
2023-01-26T01:11:04.746Z,7.20
2023-01-26T01:16:10.870Z,6.13
2023-01-26T01:21:18.245Z,5.25
2023-01-26T01:26:25.473Z,5.78
2023-01-26T01:31:30.559Z,6.78
2023-01-26T01:36:35.454Z,6.87
2023-01-26T01:41:41.298Z,6.05
2023-01-26T01:46:50.156Z,6.28
2023-01-26T01:51:59.989Z,6.30
2023-01-26T01:57:15.608Z,7.25
2023-01-26T02:07:25.820Z,6.78
2023-01-26T02:12:34.649Z,6.87
2023-01-26T02:17:40.209Z,6.68
2023-01-26T02:22:53.924Z,5.70
2023-01-26T02:28:00.175Z,6.15
2023-01-26T02:33:05.094Z,7.03
2023-01-26T02:38:12.275Z,7.07
2023-01-26T02:43:20.068Z,6.95
2023-01-26T02:48:38.600Z,7.32
2023-01-26T02:53:43.117Z,7.90
2023-01-26T02:58:49.167Z,8.75
2023-01-26T03:03:53.712Z,9.18
2023-01-26T03:09:00.454Z,8.20
2023-01-26T03:14:06.348Z,9.00
2023-01-26T03:24:50.159Z,9.75
2023-01-26T03:29:56.765Z,9.50
2023-01-26T03:35:01.590Z,9.75
2023-01-26T03:40:26.526Z,9.55
2023-01-26T03:45:50.276Z,9.73
2023-01-26T03:51:13.844Z,7.60
2023-01-26T03:56:22.320Z,9.65
2023-01-26T04:01:33.166Z,6.65
2023-01-26T04:06:57.420Z,6.80
2023-01-26T04:12:02.578Z,7.22
2023-01-26T04:17:26.747Z,7.35
2023-01-26T04:22:31.989Z,8.90
2023-01-26T04:27:36.412Z,7.90
2023-01-26T04:32:43.600Z,6.32
2023-01-26T04:37:49.367Z,7.40
2023-01-26T04:42:55.275Z,8.23
2023-01-26T04:48:01.566Z,7.22
2023-01-26T04:53:07.093Z,8.82
2023-01-26T04:58:12.471Z,8.50
2023-01-26T05:03:18.505Z,8.95
2023-01-26T05:08:27.258Z,9.63
2023-01-26T05:13:32.925Z,8.45
2023-01-26T05:19:14.476Z,8.77
2023-01-26T05:24:45.805Z,8.68
2023-01-26T05:30:04.658Z,8.63
2023-01-26T05:35:14.014Z,8.13
2023-01-26T05:40:22.109Z,9.20
2023-01-26T05:45:29.638Z,6.88
2023-01-26T05:50:40.858Z,8.32
2023-01-26T05:55:50.955Z,8.50
2023-01-26T06:01:00.008Z,12.80
2023-01-26T06:06:10.656Z,11.35
2023-01-26T06:11:25.643Z,9.40
2023-01-26T06:16:54.897Z,8.65
2023-01-26T06:22:02.976Z,8.63
2023-01-26T06:27:13.247Z,17.08
2023-01-26T06:32:18.631Z,53.85
2023-01-26T06:37:30.339Z,29.25
2023-01-26T06:42:39.030Z,32.83
2023-01-26T06:47:54.025Z,21.85
2023-01-26T06:53:04.436Z,20.37
2023-01-26T06:58:30.797Z,17.23
2023-01-26T07:03:46.534Z,12.27
2023-01-26T07:08:54.981Z,9.55
2023-01-26T07:14:00.892Z,6.82
2023-01-26T07:19:05.467Z,6.60
2023-01-26T07:24:12.136Z,7.20
2023-01-26T07:29:16.783Z,7.25
2023-01-26T07:34:21.335Z,7.82
2023-01-26T07:39:28.023Z,7.72
2023-01-26T07:44:32.696Z,31.05
2023-01-26T07:49:37.423Z,11.75
2023-01-26T07:54:43.420Z,12.43
2023-01-26T07:59:48.118Z,10.35
2023-01-26T08:04:53.851Z,11.80
2023-01-26T08:10:00.663Z,12.13
2023-01-26T08:15:06.041Z,9.48
2023-01-26T08:20:12.630Z,7.38
2023-01-26T08:25:19.040Z,9.00
2023-01-26T08:30:23.523Z,7.72
2023-01-26T08:35:54.873Z,9.20
2023-01-26T08:47:23.766Z,7.05
2023-01-26T08:53:02.746Z,9.50
2023-01-26T08:58:39.946Z,8.15
2023-01-26T09:03:58.601Z,8.90
2023-01-26T09:09:13.578Z,9.32
2023-01-26T09:14:27.706Z,10.65
2023-01-26T09:24:40.425Z,13.80
2023-01-26T09:29:46.780Z,13.13
2023-01-26T09:34:51.733Z,13.43
2023-01-26T09:40:00.638Z,12.10
2023-01-26T09:45:31.831Z,12.18
2023-01-26T09:50:47.575Z,12.77
2023-01-26T09:56:15.490Z,13.55
2023-01-26T10:01:38.360Z,11.75
2023-01-26T10:07:03.710Z,13.20
2023-01-26T10:12:48.538Z,10.23
2023-01-26T10:18:18.466Z,13.10
2023-01-26T10:23:28.621Z,10.75
2023-01-26T10:28:37.308Z,11.20
2023-01-26T10:33:53.087Z,10.90
2023-01-26T10:39:07.066Z,31.90
2023-01-26T10:45:14.866Z,10.80
2023-01-26T10:50:43.265Z,10.43
2023-01-26T10:56:42.480Z,17.25
2023-01-26T11:38:51.468Z,12.60
2023-01-26T11:44:29.842Z,10.40
2023-01-26T11:50:08.571Z,10.40
2023-01-26T11:56:07.379Z,10.38
2023-01-26T12:02:44.990Z,7.13
2023-01-26T12:10:04.914Z,7.82
2023-01-26T12:17:17.741Z,7.97
2023-01-26T12:22:58.393Z,9.10
2023-01-26T12:28:18.334Z,9.68
2023-01-26T12:33:22.989Z,10.73
2023-01-26T12:38:50.207Z,10.15
2023-01-26T12:44:15.217Z,9.32
2023-01-26T12:49:26.282Z,11.02
2023-01-26T12:54:42.152Z,9.68
2023-01-26T12:59:49.050Z,10.68
2023-01-26T13:04:54.731Z,11.00
2023-01-26T13:10:30.922Z,11.93
2023-01-26T13:15:35.860Z,11.63
2023-01-26T13:20:48.564Z,13.45
2023-01-26T13:26:20.450Z,13.77
2023-01-26T13:31:38.548Z,22.20
2023-01-26T13:36:47.850Z,13.30
2023-01-26T13:41:56.281Z,14.77
2023-01-26T13:47:09.935Z,12.68
2023-01-26T13:52:19.055Z,15.57
2023-01-26T13:57:29.052Z,16.83
2023-01-26T14:08:18.596Z,16.13
2023-01-26T14:13:29.485Z,18.20
2023-01-26T14:18:36.550Z,15.88
2023-01-26T14:23:42.737Z,16.88
2023-01-26T14:28:48.115Z,14.75
2023-01-26T14:34:14.165Z,12.73
2023-01-26T14:39:22.391Z,13.80
2023-01-26T14:44:27.001Z,15.95
2023-01-26T14:49:44.317Z,18.08
2023-01-26T14:54:51.688Z,19.13
2023-01-26T15:00:01.905Z,19.77
2023-01-26T15:05:14.379Z,19.50
2023-01-26T15:10:35.970Z,23.23
2023-01-26T15:15:42.364Z,23.00
2023-01-26T15:21:00.541Z,21.98
2023-01-26T15:26:08.867Z,24.15
2023-01-26T15:31:22.607Z,21.38
2023-01-26T15:36:35.368Z,23.00
2023-01-26T15:41:42.016Z,22.90
2023-01-26T15:52:42.816Z,26.40
2023-01-26T15:57:49.651Z,27.73
2023-01-26T16:02:54.164Z,26.17
2023-01-26T16:07:58.589Z,27.58
2023-01-26T16:13:10.943Z,29.27
2023-01-26T16:18:15.959Z,28.45
2023-01-26T16:23:22.444Z,27.35
2023-01-26T16:28:28.428Z,30.02
2023-01-26T16:38:37.169Z,34.13
2023-01-26T16:43:44.017Z,33.85
2023-01-26T16:48:48.519Z,39.50
2023-01-26T16:53:53.523Z,37.00
2023-01-26T16:58:59.878Z,31.47
2023-01-26T17:04:05.413Z,31.25
2023-01-26T17:09:11.189Z,33.33
2023-01-26T17:19:21.361Z,33.88
2023-01-26T17:24:25.998Z,33.45
2023-01-26T17:29:33.866Z,34.58
2023-01-26T17:34:38.518Z,35.78
2023-01-26T17:39:44.794Z,43.70
2023-01-26T17:44:54.187Z,42.55
2023-01-26T17:49:58.760Z,32.33
2023-01-26T17:55:06.348Z,34.90
2023-01-26T18:00:14.019Z,37.35
2023-01-26T18:05:18.453Z,49.75
2023-01-26T18:10:22.891Z,45.20
2023-01-26T18:15:28.670Z,45.63
2023-01-26T18:25:37.553Z,54.92
2023-01-26T18:30:43.661Z,51.97
2023-01-26T18:35:48.099Z,55.55
2023-01-26T18:40:52.723Z,65.38
2023-01-26T18:45:59.160Z,59.20
2023-01-26T18:56:10.903Z,49.25
2023-01-26T19:01:18.880Z,89.57
2023-01-26T19:06:24.911Z,71.10
2023-01-26T19:11:32.074Z,70.57
2023-01-26T19:16:38.434Z,65.88
2023-01-26T19:21:42.937Z,78.57
2023-01-26T19:26:47.318Z,79.47
2023-01-26T19:31:53.096Z,68.63
2023-01-26T19:36:57.687Z,65.28
2023-01-26T19:42:02.142Z,65.85
2023-01-26T19:47:08.083Z,64.18
2023-01-26T19:52:12.824Z,75.80
2023-01-26T19:57:17.334Z,71.25
2023-01-26T20:02:23.241Z,73.15
2023-01-26T20:07:27.724Z,69.72
2023-01-26T20:12:32.620Z,69.13
2023-01-26T20:17:38.649Z,68.70
2023-01-26T20:27:47.204Z,66.75
2023-01-26T20:32:55.448Z,85.15
2023-01-26T20:38:00.613Z,86.95
2023-01-26T20:43:05.534Z,85.27
2023-01-26T20:48:11.515Z,81.17
2023-01-26T20:53:16.129Z,77.65
2023-01-26T20:58:20.684Z,92.43
2023-01-26T21:03:26.710Z,85.65
2023-01-26T21:08:31.492Z,81.15
2023-01-26T21:13:36.123Z,230.80
2023-01-26T21:18:42.548Z,175.43
2023-01-26T21:23:47.537Z,100.82
2023-01-26T21:28:53.097Z,121.63
2023-01-26T21:34:00.199Z,71.18
2023-01-26T21:39:06.684Z,75.50
2023-01-26T21:44:12.998Z,89.45
2023-01-26T21:49:19.669Z,80.57
2023-01-26T21:54:24.449Z,78.85
2023-01-26T21:59:30.726Z,155.63
2023-01-26T22:04:36.823Z,95.78
2023-01-26T22:09:41.592Z,91.22
2023-01-26T22:14:46.816Z,101.68
2023-01-26T22:24:58.253Z,112.60
2023-01-26T22:30:02.916Z,69.45
2023-01-26T22:35:09.996Z,71.82
2023-01-26T22:40:15.536Z,83.53
2023-01-26T22:45:20.220Z,126.00
2023-01-26T22:50:28.131Z,97.35
2023-01-26T22:55:32.610Z,91.35
2023-01-26T23:00:38.385Z,87.80
2023-01-26T23:05:45.696Z,80.10
2023-01-26T23:10:50.261Z,85.55
2023-01-26T23:15:54.731Z,80.20
2023-01-26T23:21:00.874Z,70.85
2023-01-26T23:26:05.546Z,80.32
2023-01-26T23:31:11.173Z,75.75
2023-01-26T23:36:17.743Z,78.05
2023-01-26T23:41:22.175Z,79.10
2023-01-26T23:46:26.713Z,63.70
2023-01-26T23:51:33.014Z,68.63
2023-01-26T23:56:37.641Z,80.25
